createdAt,value
2022-11-01T00:00:27.794Z,14.42
2022-11-01T00:01:27.808Z,14.35
2022-11-01T00:02:27.829Z,14.10
2022-11-01T00:03:27.723Z,14.13
2022-11-01T00:04:27.704Z,14.06
2022-11-01T00:05:27.672Z,13.96
2022-11-01T00:06:27.661Z,13.99
2022-11-01T00:07:27.634Z,13.96
2022-11-01T00:08:27.617Z,13.94
2022-11-01T00:09:27.594Z,14.04
2022-11-01T00:10:27.575Z,14.04
2022-11-01T00:11:27.560Z,14.35
2022-11-01T00:12:27.531Z,14.38
2022-11-01T00:13:27.545Z,14.46
2022-11-01T00:14:27.636Z,14.39
2022-11-01T00:15:27.464Z,14.35
2022-11-01T00:16:27.598Z,14.49
2022-11-01T00:17:28.344Z,14.43
2022-11-01T00:18:27.429Z,14.38
2022-11-01T00:19:27.473Z,14.74
2022-11-01T00:20:27.614Z,14.91
2022-11-01T00:21:35.144Z,14.80
2022-11-01T00:23:27.296Z,14.93
2022-11-01T00:24:27.283Z,14.99
2022-11-01T00:25:27.256Z,14.93
2022-11-01T00:26:27.307Z,15.05
2022-11-01T00:27:27.207Z,15.12
2022-11-01T00:28:27.193Z,15.19
2022-11-01T00:29:27.165Z,15.24
2022-11-01T00:30:27.152Z,15.38
2022-11-01T00:31:27.121Z,15.45
2022-11-01T00:32:27.109Z,15.49
2022-11-01T00:33:27.081Z,15.51
2022-11-01T00:34:27.060Z,15.56
2022-11-01T00:35:27.081Z,15.54
2022-11-01T00:36:27.015Z,15.63
2022-11-01T00:37:27.006Z,15.56
2022-11-01T00:38:26.973Z,15.67
2022-11-01T00:39:30.632Z,15.76
2022-11-01T00:40:26.937Z,15.74
2022-11-01T00:41:26.930Z,15.84
2022-11-01T00:42:26.895Z,15.85
2022-11-01T00:43:26.877Z,15.93
2022-11-01T00:44:26.855Z,15.94
2022-11-01T00:45:26.836Z,15.86
2022-11-01T00:46:26.820Z,15.89
2022-11-01T00:47:26.784Z,16.01
2022-11-01T00:48:26.771Z,16.01
2022-11-01T00:49:26.747Z,15.94
2022-11-01T00:50:26.723Z,16.06
2022-11-01T00:51:26.700Z,16.06
2022-11-01T00:52:26.685Z,15.97
2022-11-01T00:53:26.657Z,16.07
2022-11-01T00:54:26.661Z,16.12
2022-11-01T00:55:26.618Z,16.04
2022-11-01T00:56:26.597Z,16.12
2022-11-01T00:57:26.577Z,16.12
2022-11-01T00:58:26.562Z,16.09
2022-11-01T00:59:26.542Z,16.20
2022-11-01T01:00:26.517Z,16.31
2022-11-01T01:01:26.625Z,16.41
2022-11-01T01:02:26.554Z,16.38
2022-11-01T01:03:26.459Z,16.31
2022-11-01T01:04:26.437Z,16.34
2022-11-01T01:05:26.430Z,16.48
2022-11-01T01:06:26.423Z,16.50
2022-11-01T01:07:26.378Z,16.63
2022-11-01T01:08:26.360Z,16.62
2022-11-01T01:09:26.334Z,16.58
2022-11-01T01:10:26.318Z,16.55
2022-11-01T01:11:26.324Z,16.53
2022-11-01T01:12:26.305Z,16.58
2022-11-01T01:13:26.268Z,16.56
2022-11-01T01:14:31.331Z,16.56
2022-11-01T01:15:26.233Z,16.56
2022-11-01T01:16:26.195Z,16.67
2022-11-01T01:17:28.667Z,16.68
2022-11-01T01:18:26.153Z,16.73
2022-11-01T01:19:26.141Z,16.83
2022-11-01T01:20:26.113Z,16.74
2022-11-01T01:21:26.103Z,16.86
2022-11-01T01:22:26.108Z,16.86
2022-11-01T01:23:26.050Z,16.90
2022-11-01T01:24:26.032Z,16.83
2022-11-01T01:25:26.036Z,16.89
2022-11-01T01:26:25.992Z,17.07
2022-11-01T01:27:25.969Z,16.99
2022-11-01T01:28:25.953Z,17.00
2022-11-01T01:29:25.933Z,17.06
2022-11-01T01:30:25.911Z,16.98
2022-11-01T01:31:25.908Z,16.98
2022-11-01T01:32:25.892Z,17.06
2022-11-01T01:33:25.854Z,17.10
2022-11-01T01:34:25.847Z,17.15
2022-11-01T01:35:25.818Z,17.22
2022-11-01T01:36:25.802Z,17.15
2022-11-01T01:37:31.424Z,17.29
2022-11-01T01:38:25.769Z,17.33
2022-11-01T01:39:25.756Z,17.29
2022-11-01T01:40:25.713Z,17.35
2022-11-01T01:41:25.727Z,17.35
2022-11-01T01:42:25.672Z,17.44
2022-11-01T01:43:25.675Z,17.40
2022-11-01T01:44:25.645Z,17.33
2022-11-01T01:45:25.617Z,17.32
2022-11-01T01:46:25.599Z,17.33
2022-11-01T01:47:25.575Z,17.33
2022-11-01T01:48:25.562Z,17.41
2022-11-01T01:49:25.540Z,17.32
2022-11-01T01:50:25.518Z,17.30
2022-11-01T01:51:25.495Z,17.43
2022-11-01T01:52:25.471Z,17.40
2022-11-01T01:53:25.456Z,17.40
2022-11-01T01:54:25.498Z,17.40
2022-11-01T01:55:25.416Z,17.44
2022-11-01T01:56:25.394Z,17.36
2022-11-01T01:57:25.389Z,17.30
2022-11-01T01:58:25.378Z,17.35
2022-11-01T01:59:25.342Z,17.29
2022-11-01T02:00:25.332Z,17.43
2022-11-01T02:01:25.381Z,17.29
2022-11-01T02:02:25.342Z,17.30
2022-11-01T02:03:25.263Z,17.33
2022-11-01T02:04:25.248Z,17.43
2022-11-01T02:05:25.226Z,17.44
2022-11-01T02:06:25.259Z,17.43
2022-11-01T02:07:25.184Z,17.44
2022-11-01T02:08:25.178Z,17.46
2022-11-01T02:09:28.155Z,17.44
2022-11-01T02:10:25.125Z,17.46
2022-11-01T02:11:25.106Z,17.55
2022-11-01T02:12:25.088Z,17.53
2022-11-01T02:13:25.095Z,17.51
2022-11-01T02:14:25.055Z,17.48
2022-11-01T02:15:25.041Z,17.54
2022-11-01T02:16:25.045Z,17.57
2022-11-01T02:17:24.995Z,17.51
2022-11-01T02:18:24.973Z,17.50
2022-11-01T02:19:24.962Z,17.53
2022-11-01T02:20:24.932Z,17.54
2022-11-01T02:21:24.913Z,17.57
2022-11-01T02:22:24.895Z,17.51
2022-11-01T02:23:24.872Z,17.43
2022-11-01T02:24:24.854Z,17.40
2022-11-01T02:25:24.834Z,17.48
2022-11-01T02:26:24.816Z,17.46
2022-11-01T02:27:24.794Z,17.55
2022-11-01T02:28:24.793Z,17.55
2022-11-01T02:29:24.767Z,17.55
2022-11-01T02:30:24.744Z,17.50
2022-11-01T02:31:24.721Z,17.53
2022-11-01T02:32:24.692Z,17.53
2022-11-01T02:33:24.685Z,17.57
2022-11-01T02:34:24.664Z,17.64
2022-11-01T02:35:24.639Z,17.63
2022-11-01T02:36:24.634Z,17.71
2022-11-01T02:37:24.612Z,17.63
2022-11-01T02:38:24.580Z,17.67
2022-11-01T02:39:24.567Z,17.66
2022-11-01T02:40:24.543Z,17.67
2022-11-01T02:41:24.520Z,17.69
2022-11-01T02:42:24.510Z,17.62
2022-11-01T02:43:24.499Z,17.70
2022-11-01T02:44:24.462Z,17.70
2022-11-01T02:45:24.449Z,17.67
2022-11-01T02:46:24.426Z,17.71
2022-11-01T02:47:24.405Z,17.79
2022-11-01T02:48:24.392Z,17.73
2022-11-01T02:49:24.366Z,17.70
2022-11-01T02:50:24.347Z,17.84
2022-11-01T02:51:24.331Z,17.76
2022-11-01T02:52:24.311Z,17.79
2022-11-01T02:53:24.300Z,17.85
2022-11-01T02:54:24.267Z,17.82
2022-11-01T02:55:24.253Z,17.82
2022-11-01T02:56:24.234Z,17.78
2022-11-01T02:57:24.210Z,17.76
2022-11-01T02:58:24.193Z,17.85
2022-11-01T02:59:24.196Z,17.81
2022-11-01T03:00:24.751Z,17.81
2022-11-01T03:01:24.290Z,17.76
2022-11-01T03:02:24.122Z,17.76
2022-11-01T03:03:24.125Z,17.81
2022-11-01T03:04:24.073Z,17.76
2022-11-01T03:05:24.055Z,17.78
2022-11-01T03:06:24.046Z,17.74
2022-11-01T03:07:24.022Z,17.81
2022-11-01T03:08:23.994Z,17.73
2022-11-01T03:09:23.979Z,17.81
2022-11-01T03:10:23.963Z,17.76
2022-11-01T03:11:23.970Z,17.89
2022-11-01T03:12:23.948Z,17.89
2022-11-01T03:13:23.919Z,17.89
2022-11-01T03:14:23.885Z,17.78
2022-11-01T03:15:24.308Z,17.82
2022-11-01T03:16:23.844Z,17.88
2022-11-01T03:17:23.823Z,17.85
2022-11-01T03:18:23.806Z,17.92
2022-11-01T03:19:23.794Z,17.95
2022-11-01T03:20:23.797Z,17.95
2022-11-01T03:21:23.751Z,18.00
2022-11-01T03:22:23.728Z,17.94
2022-11-01T03:23:23.724Z,17.99
2022-11-01T03:24:23.689Z,17.91
2022-11-01T03:25:23.671Z,17.92
2022-11-01T03:26:23.652Z,18.00
2022-11-01T03:27:23.663Z,18.04
2022-11-01T03:28:23.644Z,18.04
2022-11-01T03:29:23.614Z,18.02
2022-11-01T03:30:23.590Z,18.02
2022-11-01T03:31:23.571Z,17.97
2022-11-01T03:32:23.533Z,17.94
2022-11-01T03:33:23.515Z,17.88
2022-11-01T03:34:23.497Z,17.85
2022-11-01T03:35:23.479Z,17.71
2022-11-01T03:36:23.463Z,17.57
2022-11-01T03:37:23.447Z,17.62
2022-11-01T03:38:23.421Z,17.43
2022-11-01T03:39:23.407Z,17.29
2022-11-01T03:40:23.381Z,17.18
2022-11-01T03:41:23.363Z,17.03
2022-11-01T03:42:23.344Z,16.96
2022-11-01T03:43:23.336Z,16.85
2022-11-01T03:44:23.304Z,16.74
2022-11-01T03:46:23.279Z,16.58
2022-11-01T03:47:23.245Z,16.50
2022-11-01T03:48:23.222Z,16.49
2022-11-01T03:49:23.217Z,16.45
2022-11-01T03:50:23.186Z,16.42
2022-11-01T03:51:23.175Z,16.37
2022-11-01T03:52:23.141Z,16.38
2022-11-01T03:53:23.134Z,16.40
2022-11-01T03:54:23.101Z,16.38
2022-11-01T03:55:23.091Z,16.34
2022-11-01T03:56:23.063Z,16.34
2022-11-01T03:57:23.050Z,16.31
2022-11-01T03:58:23.022Z,16.27
2022-11-01T03:59:23.003Z,16.33
2022-11-01T04:00:22.984Z,16.30
2022-11-01T04:01:23.072Z,16.23
2022-11-01T04:02:22.947Z,16.23
2022-11-01T04:03:22.922Z,16.22
2022-11-01T04:04:22.895Z,16.14
2022-11-01T04:05:22.873Z,16.16
2022-11-01T04:06:22.865Z,16.11
2022-11-01T04:07:22.843Z,16.12
2022-11-01T04:08:22.814Z,16.03
2022-11-01T04:09:22.809Z,16.14
2022-11-01T04:10:22.784Z,15.97
2022-11-01T04:11:22.757Z,15.96
2022-11-01T04:12:22.737Z,16.00
2022-11-01T04:13:22.718Z,16.01
2022-11-01T04:14:22.692Z,16.04
2022-11-01T04:15:22.676Z,16.03
2022-11-01T04:16:22.652Z,16.04
2022-11-01T04:17:22.643Z,16.09
2022-11-01T04:18:22.612Z,16.04
2022-11-01T04:19:22.590Z,16.14
2022-11-01T04:20:22.588Z,16.09
2022-11-01T04:21:22.546Z,16.11
2022-11-01T04:22:24.617Z,16.01
2022-11-01T04:23:22.506Z,16.04
2022-11-01T04:24:22.484Z,16.09
2022-11-01T04:25:22.468Z,16.04
2022-11-01T04:26:22.441Z,16.06
2022-11-01T04:27:22.432Z,16.03
2022-11-01T04:28:22.407Z,16.06
2022-11-01T04:29:22.378Z,16.09
2022-11-01T04:30:22.362Z,16.06
2022-11-01T04:31:22.345Z,15.97
2022-11-01T04:32:22.316Z,15.97
2022-11-01T04:33:22.299Z,15.94
2022-11-01T04:34:22.273Z,15.92
2022-11-01T04:35:22.256Z,16.00
2022-11-01T04:36:22.230Z,16.06
2022-11-01T04:37:22.216Z,16.01
2022-11-01T04:38:22.192Z,16.04
2022-11-01T04:39:22.173Z,16.06
2022-11-01T04:40:22.153Z,16.03
2022-11-01T04:41:22.140Z,16.11
2022-11-01T04:42:22.146Z,16.04
2022-11-01T04:43:22.105Z,16.06
2022-11-01T04:44:22.067Z,16.14
2022-11-01T04:45:22.051Z,16.16
2022-11-01T04:46:22.028Z,16.12
2022-11-01T04:47:22.013Z,16.15
2022-11-01T04:48:21.988Z,16.18
2022-11-01T04:49:21.997Z,16.26
2022-11-01T04:50:21.962Z,16.26
2022-11-01T04:51:21.935Z,16.26
2022-11-01T04:52:21.906Z,16.20
2022-11-01T04:53:21.885Z,16.18
2022-11-01T04:54:21.872Z,16.20
2022-11-01T04:55:21.840Z,16.18
2022-11-01T04:56:21.824Z,16.23
2022-11-01T04:57:21.803Z,16.22
2022-11-01T04:58:21.777Z,16.30
2022-11-01T04:59:21.758Z,16.18
2022-11-01T05:00:21.737Z,16.23
2022-11-01T05:01:21.800Z,16.20
2022-11-01T05:02:21.739Z,16.20
2022-11-01T05:03:21.675Z,16.18
2022-11-01T05:04:21.660Z,16.22
2022-11-01T05:05:21.634Z,16.18
2022-11-01T05:06:21.613Z,16.18
2022-11-01T05:07:21.597Z,16.20
2022-11-01T05:08:21.579Z,16.20
2022-11-01T05:09:21.555Z,16.12
2022-11-01T05:10:21.545Z,16.14
2022-11-01T05:11:21.523Z,16.15
2022-11-01T05:12:21.497Z,16.15
2022-11-01T05:13:21.480Z,16.14
2022-11-01T05:14:21.446Z,16.20
2022-11-01T05:15:21.431Z,16.15
2022-11-01T05:16:21.457Z,16.22
2022-11-01T05:17:21.390Z,16.22
2022-11-01T05:18:21.371Z,16.20
2022-11-01T05:19:21.403Z,16.15
2022-11-01T05:20:21.329Z,16.30
2022-11-01T05:21:21.312Z,16.25
2022-11-01T05:22:21.296Z,16.20
2022-11-01T05:23:21.275Z,16.26
2022-11-01T05:24:21.254Z,16.26
2022-11-01T05:25:21.226Z,16.26
2022-11-01T05:26:21.228Z,16.14
2022-11-01T05:27:21.181Z,16.18
2022-11-01T05:28:21.165Z,16.18
2022-11-01T05:29:32.376Z,16.18
2022-11-01T05:30:21.143Z,16.11
2022-11-01T05:31:21.093Z,16.23
2022-11-01T05:32:21.081Z,16.23
2022-11-01T05:33:21.056Z,16.20
2022-11-01T05:34:21.038Z,16.16
2022-11-01T05:35:21.016Z,16.18
2022-11-01T05:36:20.992Z,16.18
2022-11-01T05:37:24.539Z,16.09
2022-11-01T05:38:20.978Z,16.12
2022-11-01T05:39:20.932Z,16.16
2022-11-01T05:40:20.915Z,16.18
2022-11-01T05:41:20.958Z,16.22
2022-11-01T05:42:20.888Z,16.22
2022-11-01T05:43:20.850Z,16.25
2022-11-01T05:44:20.906Z,16.20
2022-11-01T05:45:20.807Z,16.20
2022-11-01T05:46:20.803Z,16.26
2022-11-01T05:47:20.774Z,16.30
2022-11-01T05:48:20.754Z,16.27
2022-11-01T05:49:20.734Z,16.23
2022-11-01T05:50:20.707Z,16.22
2022-11-01T05:51:20.694Z,16.27
2022-11-01T05:52:20.663Z,16.23
2022-11-01T05:53:20.657Z,16.27
2022-11-01T05:54:20.622Z,16.30
2022-11-01T05:55:20.606Z,16.30
2022-11-01T05:56:20.582Z,16.23
2022-11-01T05:57:20.563Z,16.34
2022-11-01T05:58:20.534Z,16.26
2022-11-01T05:59:20.520Z,16.27
2022-11-01T06:00:20.494Z,16.25
2022-11-01T06:01:20.574Z,16.27
2022-11-01T06:02:20.509Z,16.25
2022-11-01T06:03:20.433Z,16.26
2022-11-01T06:04:20.414Z,16.31
2022-11-01T06:05:20.403Z,16.22
2022-11-01T06:06:20.372Z,16.25
2022-11-01T06:07:20.359Z,16.26
2022-11-01T06:08:20.343Z,16.30
2022-11-01T06:09:20.308Z,16.23
2022-11-01T06:10:20.297Z,16.33
2022-11-01T06:11:20.276Z,16.31
2022-11-01T06:12:20.247Z,16.35
2022-11-01T06:13:20.228Z,16.23
2022-11-01T06:14:20.221Z,16.35
2022-11-01T06:15:20.186Z,16.34
2022-11-01T06:16:20.170Z,16.33
2022-11-01T06:17:20.145Z,16.40
2022-11-01T06:18:20.128Z,16.40
2022-11-01T06:19:20.103Z,16.38
2022-11-01T06:20:20.090Z,16.27
2022-11-01T06:21:20.061Z,16.37
2022-11-01T06:22:20.041Z,16.35
2022-11-01T06:23:20.023Z,16.23
2022-11-01T06:24:20.001Z,16.26
2022-11-01T06:25:19.977Z,16.30
2022-11-01T06:26:19.959Z,16.30
2022-11-01T06:27:19.943Z,16.25
2022-11-01T06:28:19.918Z,16.14
2022-11-01T06:29:19.897Z,16.23
2022-11-01T06:30:19.881Z,16.23
2022-11-01T06:31:19.855Z,16.26
2022-11-01T06:32:19.839Z,16.31
2022-11-01T06:33:19.822Z,16.37
2022-11-01T06:34:19.793Z,16.38
2022-11-01T06:35:19.774Z,16.31
2022-11-01T06:36:19.753Z,16.37
2022-11-01T06:37:19.728Z,16.31
2022-11-01T06:38:19.745Z,16.34
2022-11-01T06:39:19.686Z,16.23
2022-11-01T06:40:19.676Z,16.27
2022-11-01T06:41:19.651Z,16.30
2022-11-01T06:42:19.641Z,16.30
2022-11-01T06:43:19.608Z,16.25
2022-11-01T06:44:19.587Z,16.23
2022-11-01T06:45:19.570Z,16.27
2022-11-01T06:46:19.707Z,16.27
2022-11-01T06:47:19.525Z,16.26
2022-11-01T06:48:19.628Z,16.23
2022-11-01T06:49:19.523Z,16.23
2022-11-01T06:50:19.466Z,16.30
2022-11-01T06:51:19.445Z,16.25
2022-11-01T06:52:19.427Z,16.27
2022-11-01T06:53:19.397Z,16.33
2022-11-01T06:54:19.382Z,16.23
2022-11-01T06:55:19.362Z,16.33
2022-11-01T06:56:19.337Z,16.33
2022-11-01T06:57:19.318Z,16.30
2022-11-01T06:58:19.305Z,16.44
2022-11-01T06:59:19.278Z,16.34
2022-11-01T07:00:19.259Z,16.38
2022-11-01T07:01:19.366Z,16.40
2022-11-01T07:02:19.886Z,16.37
2022-11-01T07:03:19.195Z,16.37
2022-11-01T07:04:19.177Z,16.38
2022-11-01T07:05:19.158Z,16.37
2022-11-01T07:06:19.160Z,16.33
2022-11-01T07:07:19.116Z,16.31
2022-11-01T07:08:19.095Z,16.37
2022-11-01T07:09:19.071Z,16.30
2022-11-01T07:10:19.056Z,16.38
2022-11-01T07:11:19.031Z,16.38
2022-11-01T07:12:19.015Z,16.35
2022-11-01T07:13:18.992Z,16.33
2022-11-01T07:14:18.969Z,16.31
2022-11-01T07:15:18.951Z,16.34
2022-11-01T07:16:18.942Z,16.31
2022-11-01T07:17:18.911Z,16.25
2022-11-01T07:18:18.886Z,16.23
2022-11-01T07:19:18.873Z,16.37
2022-11-01T07:20:18.849Z,16.37
2022-11-01T07:21:18.842Z,16.35
2022-11-01T07:22:18.816Z,16.40
2022-11-01T07:23:18.804Z,16.41
2022-11-01T07:24:18.779Z,16.42
2022-11-01T07:25:18.762Z,16.37
2022-11-01T07:26:18.730Z,16.38
2022-11-01T07:27:20.560Z,16.41
2022-11-01T07:28:18.682Z,16.40
2022-11-01T07:29:18.668Z,16.49
2022-11-01T07:30:18.647Z,16.42
2022-11-01T07:31:18.632Z,16.48
2022-11-01T07:32:18.606Z,16.33
2022-11-01T07:33:18.583Z,16.37
2022-11-01T07:34:18.564Z,16.40
2022-11-01T07:35:18.542Z,16.40
2022-11-01T07:36:18.523Z,16.45
2022-11-01T07:37:18.550Z,16.44
2022-11-01T07:38:19.024Z,16.50
2022-11-01T07:39:18.462Z,16.45
2022-11-01T07:40:18.439Z,16.50
2022-11-01T07:41:18.427Z,16.49
2022-11-01T07:42:18.401Z,16.44
2022-11-01T07:43:18.384Z,16.45
2022-11-01T07:44:18.384Z,16.44
2022-11-01T07:45:18.340Z,16.49
2022-11-01T07:46:18.364Z,16.45
2022-11-01T07:47:18.296Z,16.48
2022-11-01T07:48:18.282Z,16.52
2022-11-01T07:49:18.262Z,16.50
2022-11-01T07:50:18.249Z,16.58
2022-11-01T07:51:18.234Z,16.50
2022-11-01T07:52:18.205Z,16.50
2022-11-01T07:53:18.180Z,16.52
2022-11-01T07:54:18.160Z,16.53
2022-11-01T07:55:18.138Z,16.59
2022-11-01T07:56:18.123Z,16.55
2022-11-01T07:57:18.096Z,16.58
2022-11-01T07:58:18.082Z,16.68
2022-11-01T07:59:18.056Z,16.71
2022-11-01T08:00:18.113Z,16.67
2022-11-01T08:01:18.116Z,16.68
2022-11-01T08:02:18.188Z,16.68
2022-11-01T08:03:17.978Z,16.77
2022-11-01T08:04:17.967Z,16.68
2022-11-01T08:05:17.940Z,16.86
2022-11-01T08:06:18.034Z,16.93
2022-11-01T08:07:17.897Z,17.07
2022-11-01T08:08:17.906Z,17.06
2022-11-01T08:09:17.860Z,17.17
2022-11-01T08:10:17.841Z,17.33
2022-11-01T08:11:17.830Z,17.43
2022-11-01T08:12:17.811Z,17.41
2022-11-01T08:13:17.802Z,17.38
2022-11-01T08:14:17.763Z,17.38
2022-11-01T08:15:17.743Z,17.41
2022-11-01T08:16:17.730Z,17.32
2022-11-01T08:17:17.707Z,17.44
2022-11-01T08:18:17.695Z,17.44
2022-11-01T08:19:17.663Z,17.53
2022-11-01T08:20:17.656Z,17.67
2022-11-01T08:21:17.631Z,17.70
2022-11-01T08:22:17.609Z,17.59
2022-11-01T08:23:17.592Z,17.54
2022-11-01T08:24:17.582Z,17.55
2022-11-01T08:25:17.553Z,17.54
2022-11-01T08:26:17.535Z,17.50
2022-11-01T08:27:17.515Z,17.44
2022-11-01T08:28:17.503Z,17.53
2022-11-01T08:29:17.475Z,17.54
2022-11-01T08:30:17.461Z,17.51
2022-11-01T08:31:17.439Z,17.55
2022-11-01T08:32:17.455Z,17.55
2022-11-01T08:33:17.400Z,17.64
2022-11-01T08:34:17.396Z,17.62
2022-11-01T08:35:17.366Z,17.66
2022-11-01T08:36:17.345Z,17.66
2022-11-01T08:37:17.329Z,17.66
2022-11-01T08:38:17.322Z,17.63
2022-11-01T08:39:17.293Z,17.76
2022-11-01T08:40:17.272Z,17.95
2022-11-01T08:41:17.277Z,18.02
2022-11-01T08:42:17.239Z,18.03
2022-11-01T08:43:17.217Z,18.13
2022-11-01T08:44:17.197Z,18.13
2022-11-01T08:45:17.179Z,18.12
2022-11-01T08:46:17.170Z,18.17
2022-11-01T08:47:17.144Z,18.25
2022-11-01T08:48:17.128Z,18.27
2022-11-01T08:49:17.113Z,18.29
2022-11-01T08:50:17.097Z,18.39
2022-11-01T08:51:17.099Z,18.31
2022-11-01T08:52:17.083Z,18.39
2022-11-01T08:53:17.055Z,18.54
2022-11-01T08:54:17.027Z,18.70
2022-11-01T08:55:17.020Z,18.77
2022-11-01T08:56:16.986Z,18.70
2022-11-01T08:57:17.093Z,18.43
2022-11-01T08:58:16.970Z,18.47
2022-11-01T08:59:16.931Z,18.42
2022-11-01T09:00:16.915Z,18.42
2022-11-01T09:01:16.966Z,18.34
2022-11-01T09:02:17.065Z,18.44
2022-11-01T09:03:16.862Z,18.50
2022-11-01T09:04:16.849Z,18.65
2022-11-01T09:05:16.825Z,18.58
2022-11-01T09:06:16.820Z,18.68
2022-11-01T09:07:16.795Z,18.62
2022-11-01T09:08:16.790Z,18.68
2022-11-01T09:09:16.762Z,18.64
2022-11-01T09:10:16.743Z,18.52
2022-11-01T09:11:16.727Z,18.43
2022-11-01T09:12:21.906Z,18.39
2022-11-01T09:13:16.689Z,18.33
2022-11-01T09:14:16.696Z,18.34
2022-11-01T09:15:16.667Z,18.27
2022-11-01T09:16:16.657Z,18.19
2022-11-01T09:17:16.621Z,18.06
2022-11-01T09:18:16.603Z,18.02
2022-11-01T09:19:16.593Z,18.02
2022-11-01T09:20:16.566Z,18.06
2022-11-01T09:21:16.556Z,18.06
2022-11-01T09:22:16.559Z,17.99
2022-11-01T09:23:16.516Z,17.99
2022-11-01T09:24:16.492Z,18.19
2022-11-01T09:25:16.502Z,18.09
2022-11-01T09:26:16.457Z,18.07
2022-11-01T09:27:16.448Z,18.09
2022-11-01T09:28:16.448Z,18.07
2022-11-01T09:29:16.407Z,18.10
2022-11-01T09:30:16.389Z,18.07
2022-11-01T09:31:20.961Z,18.12
2022-11-01T09:32:16.394Z,18.33
2022-11-01T09:33:16.336Z,18.24
2022-11-01T09:34:16.336Z,18.34
2022-11-01T09:35:16.297Z,18.42
2022-11-01T09:36:16.284Z,18.44
2022-11-01T09:37:16.259Z,18.44
2022-11-01T09:38:16.254Z,18.43
2022-11-01T09:39:16.230Z,18.42
2022-11-01T09:40:16.214Z,18.36
2022-11-01T09:41:16.191Z,18.31
2022-11-01T09:42:16.174Z,18.22
2022-11-01T09:43:16.184Z,18.24
2022-11-01T09:44:16.141Z,18.18
2022-11-01T09:45:16.139Z,18.10
2022-11-01T09:46:16.179Z,18.02
2022-11-01T09:47:16.081Z,18.09
2022-11-01T09:48:16.066Z,18.03
2022-11-01T09:49:16.064Z,18.02
2022-11-01T09:50:16.030Z,17.95
2022-11-01T09:51:16.020Z,17.85
2022-11-01T09:52:16.005Z,17.89
2022-11-01T09:53:15.981Z,17.78
2022-11-01T09:54:15.968Z,17.71
2022-11-01T09:55:15.941Z,17.69
2022-11-01T09:56:15.924Z,17.64
2022-11-01T09:57:15.913Z,17.66
2022-11-01T09:58:15.890Z,17.54
2022-11-01T09:59:15.870Z,17.43
2022-11-01T10:00:15.850Z,17.46
2022-11-01T10:01:15.939Z,17.26
2022-11-01T10:02:15.846Z,17.15
2022-11-01T10:03:15.802Z,17.07
2022-11-01T10:04:15.788Z,16.88
2022-11-01T10:05:18.682Z,16.60
2022-11-01T10:06:15.736Z,16.56
2022-11-01T10:07:15.719Z,16.45
2022-11-01T10:08:15.703Z,16.31
2022-11-01T10:09:15.683Z,16.27
2022-11-01T10:10:15.670Z,16.09
2022-11-01T10:11:15.644Z,16.16
2022-11-01T10:12:15.636Z,16.04
2022-11-01T10:13:15.601Z,16.00
2022-11-01T10:14:15.637Z,16.07
2022-11-01T10:15:15.564Z,16.14
2022-11-01T10:16:15.551Z,16.16
2022-11-01T10:17:15.523Z,16.23
2022-11-01T10:18:15.509Z,16.23
2022-11-01T10:19:15.493Z,16.35
2022-11-01T10:20:15.470Z,16.31
2022-11-01T10:21:15.445Z,16.44
2022-11-01T10:22:15.450Z,16.56
2022-11-01T10:23:15.414Z,16.70
2022-11-01T10:24:15.394Z,16.71
2022-11-01T10:25:15.372Z,16.90
2022-11-01T10:26:15.378Z,17.07
2022-11-01T10:27:15.332Z,16.92
2022-11-01T10:28:15.312Z,16.99
2022-11-01T10:29:15.295Z,17.14
2022-11-01T10:30:15.288Z,17.18
2022-11-01T10:31:15.258Z,17.06
2022-11-01T10:32:15.243Z,17.03
2022-11-01T10:33:15.215Z,16.99
2022-11-01T10:34:15.205Z,17.03
2022-11-01T10:35:15.183Z,16.98
2022-11-01T10:36:15.161Z,17.03
2022-11-01T10:37:15.175Z,17.15
2022-11-01T10:38:49.552Z,17.07
2022-11-01T10:40:15.097Z,17.08
2022-11-01T10:41:15.068Z,17.04
2022-11-01T10:42:15.051Z,17.04
2022-11-01T10:43:15.033Z,17.10
2022-11-01T10:44:15.015Z,17.26
2022-11-01T10:45:15.032Z,17.47
2022-11-01T10:46:14.981Z,17.57
2022-11-01T10:47:14.963Z,17.66
2022-11-01T10:48:14.949Z,18.03
2022-11-01T10:49:14.937Z,18.13
2022-11-01T10:50:14.908Z,18.33
2022-11-01T10:51:14.918Z,18.39
2022-11-01T10:52:14.877Z,18.22
2022-11-01T10:54:14.837Z,17.69
2022-11-01T10:55:14.828Z,17.51
2022-11-01T10:56:16.511Z,17.50
2022-11-01T10:57:14.785Z,17.26
2022-11-01T10:58:14.774Z,17.26
2022-11-01T10:59:14.764Z,17.20
2022-11-01T11:00:14.734Z,17.18
2022-11-01T11:01:14.775Z,17.47
2022-11-01T11:02:14.830Z,17.67
2022-11-01T11:03:14.713Z,17.82
2022-11-01T11:04:14.689Z,18.06
2022-11-01T11:05:14.642Z,18.25
2022-11-01T11:06:14.624Z,18.61
2022-11-01T11:07:18.541Z,18.95
2022-11-01T11:08:14.592Z,19.25
2022-11-01T11:09:14.574Z,19.31
2022-11-01T11:10:16.224Z,19.24
2022-11-01T11:11:14.547Z,19.42
2022-11-01T11:12:14.536Z,19.21
2022-11-01T11:13:14.559Z,19.06
2022-11-01T11:14:14.510Z,19.11
2022-11-01T11:15:14.483Z,18.87
2022-11-01T11:16:14.475Z,18.72
2022-11-01T11:17:14.452Z,18.43
2022-11-01T11:18:14.443Z,18.42
2022-11-01T11:19:14.425Z,18.55
2022-11-01T11:20:14.434Z,18.42
2022-11-01T11:21:14.393Z,18.68
2022-11-01T11:22:14.374Z,19.17
2022-11-01T11:23:14.358Z,19.43
2022-11-01T11:24:14.343Z,19.58
2022-11-01T11:25:14.328Z,19.47
2022-11-01T11:26:14.319Z,19.43
2022-11-01T11:27:14.324Z,19.25
2022-11-01T11:28:14.299Z,19.29
2022-11-01T11:29:14.277Z,19.42
2022-11-01T11:30:14.273Z,19.18
2022-11-01T11:31:14.240Z,19.25
2022-11-01T11:32:14.231Z,19.35
2022-11-01T11:33:14.212Z,19.57
2022-11-01T11:34:14.200Z,19.53
2022-11-01T11:35:14.187Z,19.51
2022-11-01T11:36:14.173Z,19.72
2022-11-01T11:37:14.157Z,19.72
2022-11-01T11:38:14.142Z,19.75
2022-11-01T11:39:14.129Z,20.13
2022-11-01T11:40:14.124Z,20.12
2022-11-01T11:41:14.124Z,19.78
2022-11-01T11:42:14.091Z,19.75
2022-11-01T11:43:14.074Z,19.76
2022-11-01T11:44:17.501Z,19.79
2022-11-01T11:45:14.085Z,19.88
2022-11-01T11:46:14.048Z,19.84
2022-11-01T11:47:14.022Z,19.69
2022-11-01T11:48:14.055Z,19.90
2022-11-01T11:49:13.991Z,19.87
2022-11-01T11:50:13.980Z,19.78
2022-11-01T11:51:13.968Z,19.43
2022-11-01T11:52:13.949Z,19.17
2022-11-01T11:53:13.948Z,18.84
2022-11-01T11:54:13.925Z,18.90
2022-11-01T11:55:13.919Z,19.14
2022-11-01T11:56:13.901Z,19.13
2022-11-01T11:57:13.904Z,19.21
2022-11-01T11:58:13.879Z,19.47
2022-11-01T11:59:13.863Z,19.47
2022-11-01T12:00:13.845Z,19.32
2022-11-01T12:01:13.903Z,19.25
2022-11-01T12:02:15.823Z,19.31
2022-11-01T12:03:13.851Z,19.46
2022-11-01T12:04:13.791Z,19.38
2022-11-01T12:05:13.779Z,18.76
2022-11-01T12:06:13.765Z,18.68
2022-11-01T12:07:13.833Z,18.70
2022-11-01T12:08:13.746Z,18.82
2022-11-01T12:09:13.724Z,19.05
2022-11-01T12:10:13.712Z,19.32
2022-11-01T12:11:13.693Z,19.54
2022-11-01T12:12:13.685Z,19.53
2022-11-01T12:13:13.679Z,19.54
2022-11-01T12:14:13.676Z,19.15
2022-11-01T12:15:13.645Z,19.11
2022-11-01T12:16:13.674Z,19.31
2022-11-01T12:17:13.622Z,19.42
2022-11-01T12:18:15.847Z,19.18
2022-11-01T12:19:13.595Z,19.17
2022-11-01T12:20:13.593Z,19.23
2022-11-01T12:21:13.570Z,19.11
2022-11-01T12:22:13.550Z,19.13
2022-11-01T12:23:13.555Z,19.20
2022-11-01T12:24:13.529Z,18.97
2022-11-01T12:25:13.513Z,19.08
2022-11-01T12:26:15.626Z,19.08
2022-11-01T12:27:13.487Z,19.15
2022-11-01T12:28:13.488Z,19.18
2022-11-01T12:29:13.477Z,19.05
2022-11-01T12:30:13.444Z,18.91
2022-11-01T12:31:13.430Z,18.98
2022-11-01T12:32:13.417Z,18.95
2022-11-01T12:33:13.460Z,18.94
2022-11-01T12:34:13.481Z,18.95
2022-11-01T12:35:13.380Z,19.01
2022-11-01T12:36:13.360Z,19.14
2022-11-01T12:37:13.361Z,19.01
2022-11-01T12:38:13.335Z,19.14
2022-11-01T12:39:13.335Z,19.06
2022-11-01T12:40:13.401Z,19.06
2022-11-01T12:41:13.289Z,19.08
2022-11-01T12:42:13.391Z,19.24
2022-11-01T12:43:13.270Z,19.28
2022-11-01T12:44:13.249Z,19.38
2022-11-01T12:45:13.251Z,19.48
2022-11-01T12:46:13.221Z,19.54
2022-11-01T12:47:13.221Z,19.65
2022-11-01T12:48:13.197Z,19.72
2022-11-01T12:49:13.187Z,19.83
2022-11-01T12:50:13.262Z,19.80
2022-11-01T12:51:13.203Z,19.84
2022-11-01T12:52:13.148Z,20.03
2022-11-01T12:53:13.133Z,20.25
2022-11-01T12:54:13.116Z,20.13
2022-11-01T12:55:15.298Z,20.15
2022-11-01T12:56:13.091Z,20.34